sensor_id;sensor_type;location;lat;lon;timestamp;temperature;humidity
5210;DHT22;2624;48.048;11.706;2023-11-19T00:03:49;3.60;99.90
5210;DHT22;2624;48.048;11.706;2023-11-19T00:08:51;3.60;99.90
5210;DHT22;2624;48.048;11.706;2023-11-19T00:13:53;3.70;99.90
5210;DHT22;2624;48.048;11.706;2023-11-19T00:18:56;3.70;99.90
5210;DHT22;2624;48.048;11.706;2023-11-19T00:23:57;3.70;99.90
5210;DHT22;2624;48.048;11.706;2023-11-19T00:28:59;3.70;99.90
5210;DHT22;2624;48.048;11.706;2023-11-19T00:34:02;3.80;99.90
5210;DHT22;2624;48.048;11.706;2023-11-19T00:39:04;3.80;99.90
5210;DHT22;2624;48.048;11.706;2023-11-19T00:44:06;3.80;99.90
5210;DHT22;2624;48.048;11.706;2023-11-19T00:49:09;3.80;99.90
5210;DHT22;2624;48.048;11.706;2023-11-19T00:54:12;3.80;99.90
5210;DHT22;2624;48.048;11.706;2023-11-19T00:59:14;3.90;99.90
5210;DHT22;2624;48.048;11.706;2023-11-19T01:04:17;3.90;99.90
5210;DHT22;2624;48.048;11.706;2023-11-19T01:09:19;3.90;99.90
5210;DHT22;2624;48.048;11.706;2023-11-19T01:14:21;4.00;99.90
5210;DHT22;2624;48.048;11.706;2023-11-19T01:19:24;4.00;99.90
5210;DHT22;2624;48.048;11.706;2023-11-19T01:24:26;4.00;99.90
5210;DHT22;2624;48.048;11.706;2023-11-19T01:29:29;4.00;99.90
5210;DHT22;2624;48.048;11.706;2023-11-19T01:34:32;4.00;99.90
5210;DHT22;2624;48.048;11.706;2023-11-19T01:39:33;4.10;99.90
5210;DHT22;2624;48.048;11.706;2023-11-19T01:44:35;4.10;99.90
5210;DHT22;2624;48.048;11.706;2023-11-19T01:49:38;4.10;99.90
5210;DHT22;2624;48.048;11.706;2023-11-19T01:54:40;4.00;99.90
5210;DHT22;2624;48.048;11.706;2023-11-19T01:59:42;4.10;99.90
5210;DHT22;2624;48.048;11.706;2023-11-19T02:04:46;4.20;99.90
5210;DHT22;2624;48.048;11.706;2023-11-19T02:09:48;4.20;99.90
5210;DHT22;2624;48.048;11.706;2023-11-19T02:14:50;4.20;99.90
5210;DHT22;2624;48.048;11.706;2023-11-19T02:19:53;4.20;99.90
5210;DHT22;2624;48.048;11.706;2023-11-19T02:25:00;4.30;99.90
5210;DHT22;2624;48.048;11.706;2023-11-19T02:30:05;4.40;99.90
5210;DHT22;2624;48.048;11.706;2023-11-19T02:35:09;4.40;99.90
5210;DHT22;2624;48.048;11.706;2023-11-19T02:40:10;4.40;99.90
5210;DHT22;2624;48.048;11.706;2023-11-19T02:45:15;4.60;99.90
5210;DHT22;2624;48.048;11.706;2023-11-19T02:50:17;4.60;99.90
5210;DHT22;2624;48.048;11.706;2023-11-19T02:55:25;4.50;99.90
5210;DHT22;2624;48.048;11.706;2023-11-19T03:00:32;4.80;99.90
5210;DHT22;2624;48.048;11.706;2023-11-19T03:05:37;4.80;99.90
5210;DHT22;2624;48.048;11.706;2023-11-19T03:10:41;4.80;99.90
5210;DHT22;2624;48.048;11.706;2023-11-19T03:15:44;4.70;99.90
5210;DHT22;2624;48.048;11.706;2023-11-19T03:20:46;4.80;99.90
5210;DHT22;2624;48.048;11.706;2023-11-19T03:25:48;4.80;99.90
5210;DHT22;2624;48.048;11.706;2023-11-19T03:30:51;4.90;99.90
5210;DHT22;2624;48.048;11.706;2023-11-19T03:35:54;5.10;99.90
5210;DHT22;2624;48.048;11.706;2023-11-19T03:40:56;5.30;99.90
5210;DHT22;2624;48.048;11.706;2023-11-19T03:46:01;5.30;99.90
5210;DHT22;2624;48.048;11.706;2023-11-19T03:51:03;5.50;99.90
5210;DHT22;2624;48.048;11.706;2023-11-19T03:56:06;5.40;99.90
5210;DHT22;2624;48.048;11.706;2023-11-19T04:01:12;5.30;99.90
5210;DHT22;2624;48.048;11.706;2023-11-19T04:06:14;5.20;99.90
5210;DHT22;2624;48.048;11.706;2023-11-19T04:11:16;5.20;99.90
5210;DHT22;2624;48.048;11.706;2023-11-19T04:16:19;5.40;99.90
5210;DHT22;2624;48.048;11.706;2023-11-19T04:21:21;5.40;99.90
5210;DHT22;2624;48.048;11.706;2023-11-19T04:26:23;5.40;99.90
5210;DHT22;2624;48.048;11.706;2023-11-19T04:31:30;5.60;99.90
5210;DHT22;2624;48.048;11.706;2023-11-19T04:36:33;5.30;99.90
5210;DHT22;2624;48.048;11.706;2023-11-19T04:41:35;5.30;99.90
5210;DHT22;2624;48.048;11.706;2023-11-19T04:46:38;5.50;99.90
5210;DHT22;2624;48.048;11.706;2023-11-19T04:51:40;5.40;99.90
5210;DHT22;2624;48.048;11.706;2023-11-19T04:56:45;5.40;99.90
5210;DHT22;2624;48.048;11.706;2023-11-19T05:01:49;5.40;99.90
5210;DHT22;2624;48.048;11.706;2023-11-19T05:06:51;5.60;99.90
5210;DHT22;2624;48.048;11.706;2023-11-19T05:11:53;5.60;99.90
5210;DHT22;2624;48.048;11.706;2023-11-19T05:16:56;5.90;99.90
5210;DHT22;2624;48.048;11.706;2023-11-19T05:21:58;5.90;99.90
5210;DHT22;2624;48.048;11.706;2023-11-19T05:27:00;6.30;99.90
5210;DHT22;2624;48.048;11.706;2023-11-19T05:32:04;6.40;99.90
5210;DHT22;2624;48.048;11.706;2023-11-19T05:37:05;6.30;99.90
5210;DHT22;2624;48.048;11.706;2023-11-19T05:42:08;6.40;99.90
5210;DHT22;2624;48.048;11.706;2023-11-19T05:47:12;6.30;99.90
5210;DHT22;2624;48.048;11.706;2023-11-19T05:52:14;6.60;99.90
5210;DHT22;2624;48.048;11.706;2023-11-19T05:57:15;6.30;99.90
5210;DHT22;2624;48.048;11.706;2023-11-19T06:02:22;6.50;99.90
5210;DHT22;2624;48.048;11.706;2023-11-19T06:07:23;6.50;99.90
5210;DHT22;2624;48.048;11.706;2023-11-19T06:12:25;6.80;99.90
5210;DHT22;2624;48.048;11.706;2023-11-19T06:17:29;6.80;99.90
5210;DHT22;2624;48.048;11.706;2023-11-19T06:22:31;6.80;99.90
5210;DHT22;2624;48.048;11.706;2023-11-19T06:27:32;6.80;99.90
5210;DHT22;2624;48.048;11.706;2023-11-19T06:32:36;7.00;99.90
5210;DHT22;2624;48.048;11.706;2023-11-19T06:37:39;6.90;99.90
5210;DHT22;2624;48.048;11.706;2023-11-19T06:42:41;6.90;99.90
5210;DHT22;2624;48.048;11.706;2023-11-19T06:47:44;7.30;99.90
5210;DHT22;2624;48.048;11.706;2023-11-19T06:52:46;7.20;99.90
5210;DHT22;2624;48.048;11.706;2023-11-19T06:57:48;7.30;99.90
5210;DHT22;2624;48.048;11.706;2023-11-19T07:02:51;7.20;99.90
5210;DHT22;2624;48.048;11.706;2023-11-19T07:07:53;7.50;99.90
5210;DHT22;2624;48.048;11.706;2023-11-19T07:12:55;7.50;99.90
5210;DHT22;2624;48.048;11.706;2023-11-19T07:17:59;7.70;99.90
5210;DHT22;2624;48.048;11.706;2023-11-19T07:23:01;7.60;99.90
5210;DHT22;2624;48.048;11.706;2023-11-19T07:28:03;7.80;99.90
5210;DHT22;2624;48.048;11.706;2023-11-19T07:33:06;7.70;99.90
5210;DHT22;2624;48.048;11.706;2023-11-19T07:38:08;7.90;99.90
5210;DHT22;2624;48.048;11.706;2023-11-19T07:43:10;8.00;99.90
5210;DHT22;2624;48.048;11.706;2023-11-19T07:48:13;7.90;99.90
5210;DHT22;2624;48.048;11.706;2023-11-19T07:53:16;8.00;99.90
5210;DHT22;2624;48.048;11.706;2023-11-19T07:58:18;8.10;99.90
5210;DHT22;2624;48.048;11.706;2023-11-19T08:03:21;8.10;99.90
5210;DHT22;2624;48.048;11.706;2023-11-19T08:08:23;8.00;99.90
5210;DHT22;2624;48.048;11.706;2023-11-19T08:13:25;8.20;99.90
5210;DHT22;2624;48.048;11.706;2023-11-19T08:18:28;8.20;99.90
5210;DHT22;2624;48.048;11.706;2023-11-19T08:23:30;8.20;99.90
5210;DHT22;2624;48.048;11.706;2023-11-19T08:28:32;8.40;99.90
5210;DHT22;2624;48.048;11.706;2023-11-19T08:33:36;8.30;99.90
5210;DHT22;2624;48.048;11.706;2023-11-19T08:38:37;8.40;99.90
5210;DHT22;2624;48.048;11.706;2023-11-19T08:43:39;8.20;99.90
5210;DHT22;2624;48.048;11.706;2023-11-19T08:48:43;8.20;99.90
5210;DHT22;2624;48.048;11.706;2023-11-19T08:53:45;8.50;99.90
5210;DHT22;2624;48.048;11.706;2023-11-19T08:58:47;8.50;99.90
5210;DHT22;2624;48.048;11.706;2023-11-19T09:03:50;8.60;99.90
5210;DHT22;2624;48.048;11.706;2023-11-19T09:08:51;8.70;99.90
5210;DHT22;2624;48.048;11.706;2023-11-19T09:13:53;8.60;99.90
5210;DHT22;2624;48.048;11.706;2023-11-19T09:18:56;8.80;99.90
5210;DHT22;2624;48.048;11.706;2023-11-19T09:23:59;8.80;99.90
5210;DHT22;2624;48.048;11.706;2023-11-19T09:29:01;9.00;99.90
5210;DHT22;2624;48.048;11.706;2023-11-19T09:34:04;8.80;99.90
5210;DHT22;2624;48.048;11.706;2023-11-19T09:39:06;9.00;99.90
5210;DHT22;2624;48.048;11.706;2023-11-19T09:44:09;8.90;99.90
5210;DHT22;2624;48.048;11.706;2023-11-19T09:49:14;8.90;99.90
5210;DHT22;2624;48.048;11.706;2023-11-19T09:54:20;9.00;99.90
5210;DHT22;2624;48.048;11.706;2023-11-19T09:59:22;8.90;99.90
5210;DHT22;2624;48.048;11.706;2023-11-19T10:04:26;9.00;99.90
5210;DHT22;2624;48.048;11.706;2023-11-19T10:09:31;9.20;99.90
5210;DHT22;2624;48.048;11.706;2023-11-19T10:14:35;9.10;99.90
5210;DHT22;2624;48.048;11.706;2023-11-19T10:19:41;9.00;99.90
5210;DHT22;2624;48.048;11.706;2023-11-19T10:24:43;9.50;99.90
5210;DHT22;2624;48.048;11.706;2023-11-19T10:29:45;9.50;99.90
5210;DHT22;2624;48.048;11.706;2023-11-19T10:34:49;9.50;99.90
5210;DHT22;2624;48.048;11.706;2023-11-19T10:39:54;9.90;99.90
5210;DHT22;2624;48.048;11.706;2023-11-19T10:44:56;10.20;99.90
5210;DHT22;2624;48.048;11.706;2023-11-19T10:50:00;10.30;99.90
5210;DHT22;2624;48.048;11.706;2023-11-19T10:55:04;10.40;99.90
5210;DHT22;2624;48.048;11.706;2023-11-19T11:00:12;10.40;99.90
5210;DHT22;2624;48.048;11.706;2023-11-19T11:05:17;10.40;99.90
5210;DHT22;2624;48.048;11.706;2023-11-19T11:10:20;10.70;99.90
5210;DHT22;2624;48.048;11.706;2023-11-19T11:15:23;10.90;99.90
5210;DHT22;2624;48.048;11.706;2023-11-19T11:20:27;10.80;99.90
5210;DHT22;2624;48.048;11.706;2023-11-19T11:25:37;11.00;99.90
5210;DHT22;2624;48.048;11.706;2023-11-19T11:30:54;10.70;99.90
5210;DHT22;2624;48.048;11.706;2023-11-19T11:36:08;10.90;99.90
5210;DHT22;2624;48.048;11.706;2023-11-19T11:41:18;10.90;99.90
5210;DHT22;2624;48.048;11.706;2023-11-19T11:46:54;11.00;99.90
5210;DHT22;2624;48.048;11.706;2023-11-19T11:52:04;10.90;99.90
5210;DHT22;2624;48.048;11.706;2023-11-19T11:57:07;11.20;99.90
5210;DHT22;2624;48.048;11.706;2023-11-19T12:02:11;11.40;99.90
5210;DHT22;2624;48.048;11.706;2023-11-19T12:07:16;11.10;99.90
5210;DHT22;2624;48.048;11.706;2023-11-19T12:12:22;11.30;99.90
5210;DHT22;2624;48.048;11.706;2023-11-19T12:17:41;11.20;99.90
5210;DHT22;2624;48.048;11.706;2023-11-19T12:22:47;11.30;99.90
5210;DHT22;2624;48.048;11.706;2023-11-19T12:27:50;10.90;99.90
5210;DHT22;2624;48.048;11.706;2023-11-19T12:32:53;10.90;99.90
5210;DHT22;2624;48.048;11.706;2023-11-19T12:37:56;10.90;99.90
5210;DHT22;2624;48.048;11.706;2023-11-19T12:42:58;11.30;99.90
5210;DHT22;2624;48.048;11.706;2023-11-19T12:48:07;11.10;99.90
5210;DHT22;2624;48.048;11.706;2023-11-19T12:53:11;10.80;99.90
5210;DHT22;2624;48.048;11.706;2023-11-19T12:58:28;10.80;99.90
5210;DHT22;2624;48.048;11.706;2023-11-19T13:03:30;10.90;99.90
5210;DHT22;2624;48.048;11.706;2023-11-19T13:08:37;10.60;99.90
5210;DHT22;2624;48.048;11.706;2023-11-19T13:13:55;10.90;99.90
5210;DHT22;2624;48.048;11.706;2023-11-19T13:18:58;11.10;99.90
5210;DHT22;2624;48.048;11.706;2023-11-19T13:24:01;10.90;99.90
5210;DHT22;2624;48.048;11.706;2023-11-19T13:29:03;10.90;99.90
5210;DHT22;2624;48.048;11.706;2023-11-19T13:34:05;11.10;99.90
5210;DHT22;2624;48.048;11.706;2023-11-19T13:39:09;11.20;99.90
5210;DHT22;2624;48.048;11.706;2023-11-19T13:44:12;10.90;99.90
5210;DHT22;2624;48.048;11.706;2023-11-19T13:49:14;11.10;99.90
5210;DHT22;2624;48.048;11.706;2023-11-19T13:54:17;11.00;99.90
5210;DHT22;2624;48.048;11.706;2023-11-19T13:59:20;11.00;99.90
5210;DHT22;2624;48.048;11.706;2023-11-19T14:04:22;10.80;99.90
5210;DHT22;2624;48.048;11.706;2023-11-19T14:09:25;10.90;99.90
5210;DHT22;2624;48.048;11.706;2023-11-19T14:14:27;10.90;99.90
5210;DHT22;2624;48.048;11.706;2023-11-19T14:19:29;10.90;99.90
5210;DHT22;2624;48.048;11.706;2023-11-19T14:24:32;10.90;99.90
5210;DHT22;2624;48.048;11.706;2023-11-19T14:29:34;11.00;99.90
5210;DHT22;2624;48.048;11.706;2023-11-19T14:34:36;11.00;99.90
5210;DHT22;2624;48.048;11.706;2023-11-19T14:39:39;10.80;99.90
5210;DHT22;2624;48.048;11.706;2023-11-19T14:44:41;10.80;99.90
5210;DHT22;2624;48.048;11.706;2023-11-19T14:49:42;10.90;99.90
5210;DHT22;2624;48.048;11.706;2023-11-19T14:54:45;10.80;99.90
5210;DHT22;2624;48.048;11.706;2023-11-19T14:59:47;10.70;99.90
5210;DHT22;2624;48.048;11.706;2023-11-19T15:04:49;10.80;99.90
5210;DHT22;2624;48.048;11.706;2023-11-19T15:09:52;10.80;99.90
5210;DHT22;2624;48.048;11.706;2023-11-19T15:14:54;10.70;99.90
5210;DHT22;2624;48.048;11.706;2023-11-19T15:19:56;10.70;99.90
5210;DHT22;2624;48.048;11.706;2023-11-19T15:24:59;10.50;99.90
5210;DHT22;2624;48.048;11.706;2023-11-19T15:30:00;10.50;99.90
5210;DHT22;2624;48.048;11.706;2023-11-19T15:35:03;10.50;99.90
5210;DHT22;2624;48.048;11.706;2023-11-19T15:40:09;10.40;99.90
5210;DHT22;2624;48.048;11.706;2023-11-19T15:45:13;10.40;99.90
5210;DHT22;2624;48.048;11.706;2023-11-19T15:50:17;10.40;99.90
5210;DHT22;2624;48.048;11.706;2023-11-19T15:55:20;10.30;99.90
5210;DHT22;2624;48.048;11.706;2023-11-19T16:00:22;10.30;99.90
5210;DHT22;2624;48.048;11.706;2023-11-19T16:05:24;10.20;99.90
5210;DHT22;2624;48.048;11.706;2023-11-19T16:10:27;10.20;99.90
5210;DHT22;2624;48.048;11.706;2023-11-19T16:15:29;10.20;99.90
5210;DHT22;2624;48.048;11.706;2023-11-19T16:20:31;10.20;99.90
5210;DHT22;2624;48.048;11.706;2023-11-19T16:25:36;10.20;99.90
5210;DHT22;2624;48.048;11.706;2023-11-19T16:30:39;10.20;99.90
5210;DHT22;2624;48.048;11.706;2023-11-19T16:35:41;10.20;99.90
5210;DHT22;2624;48.048;11.706;2023-11-19T16:40:44;10.20;99.90
5210;DHT22;2624;48.048;11.706;2023-11-19T16:45:49;10.10;99.90
5210;DHT22;2624;48.048;11.706;2023-11-19T16:50:51;10.10;99.90
5210;DHT22;2624;48.048;11.706;2023-11-19T16:55:54;10.10;99.90
5210;DHT22;2624;48.048;11.706;2023-11-19T17:00:55;10.10;99.90
5210;DHT22;2624;48.048;11.706;2023-11-19T17:05:58;10.00;99.90
5210;DHT22;2624;48.048;11.706;2023-11-19T17:11:01;10.00;99.90
5210;DHT22;2624;48.048;11.706;2023-11-19T17:16:04;10.00;99.90
5210;DHT22;2624;48.048;11.706;2023-11-19T17:21:07;10.00;99.90
5210;DHT22;2624;48.048;11.706;2023-11-19T17:26:11;9.90;99.90
5210;DHT22;2624;48.048;11.706;2023-11-19T17:31:13;10.00;99.90
5210;DHT22;2624;48.048;11.706;2023-11-19T17:36:14;9.90;99.90
5210;DHT22;2624;48.048;11.706;2023-11-19T17:41:18;9.90;99.90
5210;DHT22;2624;48.048;11.706;2023-11-19T17:46:20;9.90;99.90
5210;DHT22;2624;48.048;11.706;2023-11-19T17:51:22;9.90;99.90
5210;DHT22;2624;48.048;11.706;2023-11-19T17:56:25;9.90;99.90
5210;DHT22;2624;48.048;11.706;2023-11-19T18:01:27;9.80;99.90
5210;DHT22;2624;48.048;11.706;2023-11-19T18:06:29;9.80;99.90
5210;DHT22;2624;48.048;11.706;2023-11-19T18:11:37;9.80;99.90
5210;DHT22;2624;48.048;11.706;2023-11-19T18:16:38;9.80;99.90
5210;DHT22;2624;48.048;11.706;2023-11-19T18:21:40;9.70;99.90
5210;DHT22;2624;48.048;11.706;2023-11-19T18:26:43;9.70;99.90
5210;DHT22;2624;48.048;11.706;2023-11-19T18:31:45;9.70;99.90
5210;DHT22;2624;48.048;11.706;2023-11-19T18:36:47;9.70;99.90
5210;DHT22;2624;48.048;11.706;2023-11-19T18:41:50;9.70;99.90
5210;DHT22;2624;48.048;11.706;2023-11-19T18:46:51;9.60;99.90
5210;DHT22;2624;48.048;11.706;2023-11-19T18:51:53;9.60;99.90
5210;DHT22;2624;48.048;11.706;2023-11-19T18:56:56;9.60;99.90
5210;DHT22;2624;48.048;11.706;2023-11-19T19:01:58;9.60;99.90
5210;DHT22;2624;48.048;11.706;2023-11-19T19:07:00;9.60;99.90
5210;DHT22;2624;48.048;11.706;2023-11-19T19:12:05;9.50;99.90
5210;DHT22;2624;48.048;11.706;2023-11-19T19:17:08;9.50;99.90
5210;DHT22;2624;48.048;11.706;2023-11-19T19:22:11;9.60;99.90
5210;DHT22;2624;48.048;11.706;2023-11-19T19:27:14;9.50;99.90
5210;DHT22;2624;48.048;11.706;2023-11-19T19:32:16;9.50;99.90
5210;DHT22;2624;48.048;11.706;2023-11-19T19:37:18;9.50;99.90
5210;DHT22;2624;48.048;11.706;2023-11-19T19:42:21;9.50;99.90
5210;DHT22;2624;48.048;11.706;2023-11-19T19:47:23;9.50;99.90
5210;DHT22;2624;48.048;11.706;2023-11-19T19:52:25;9.50;99.90
5210;DHT22;2624;48.048;11.706;2023-11-19T19:57:28;9.50;99.90
5210;DHT22;2624;48.048;11.706;2023-11-19T20:02:30;9.50;99.90
5210;DHT22;2624;48.048;11.706;2023-11-19T20:07:32;9.50;99.90
5210;DHT22;2624;48.048;11.706;2023-11-19T20:12:36;9.50;99.90
5210;DHT22;2624;48.048;11.706;2023-11-19T20:17:38;9.50;99.90
5210;DHT22;2624;48.048;11.706;2023-11-19T20:22:39;9.40;99.90
5210;DHT22;2624;48.048;11.706;2023-11-19T20:27:43;9.40;99.90
5210;DHT22;2624;48.048;11.706;2023-11-19T20:32:45;9.40;99.90
5210;DHT22;2624;48.048;11.706;2023-11-19T20:37:47;9.40;99.90
5210;DHT22;2624;48.048;11.706;2023-11-19T20:42:50;9.40;99.90
5210;DHT22;2624;48.048;11.706;2023-11-19T20:47:51;9.30;99.90
5210;DHT22;2624;48.048;11.706;2023-11-19T20:52:53;9.40;99.90
5210;DHT22;2624;48.048;11.706;2023-11-19T20:57:58;9.40;99.90
5210;DHT22;2624;48.048;11.706;2023-11-19T21:03:00;9.40;99.90
5210;DHT22;2624;48.048;11.706;2023-11-19T21:08:02;9.30;99.90
5210;DHT22;2624;48.048;11.706;2023-11-19T21:13:05;9.40;99.90
5210;DHT22;2624;48.048;11.706;2023-11-19T21:18:07;9.40;99.90
5210;DHT22;2624;48.048;11.706;2023-11-19T21:23:10;9.40;99.90
5210;DHT22;2624;48.048;11.706;2023-11-19T21:28:13;9.40;99.90
5210;DHT22;2624;48.048;11.706;2023-11-19T21:33:15;9.30;99.90
5210;DHT22;2624;48.048;11.706;2023-11-19T21:38:19;9.40;99.90
5210;DHT22;2624;48.048;11.706;2023-11-19T21:43:23;9.40;99.90
5210;DHT22;2624;48.048;11.706;2023-11-19T21:48:25;9.40;99.90
5210;DHT22;2624;48.048;11.706;2023-11-19T21:53:26;9.30;99.90
5210;DHT22;2624;48.048;11.706;2023-11-19T21:58:31;9.40;99.90
5210;DHT22;2624;48.048;11.706;2023-11-19T22:03:33;9.30;99.90
5210;DHT22;2624;48.048;11.706;2023-11-19T22:08:34;9.30;99.90
5210;DHT22;2624;48.048;11.706;2023-11-19T22:13:38;9.30;99.90
5210;DHT22;2624;48.048;11.706;2023-11-19T22:18:39;9.40;99.90
5210;DHT22;2624;48.048;11.706;2023-11-19T22:23:43;9.30;99.90
5210;DHT22;2624;48.048;11.706;2023-11-19T22:28:46;9.30;99.90
5210;DHT22;2624;48.048;11.706;2023-11-19T22:33:48;9.30;99.90
5210;DHT22;2624;48.048;11.706;2023-11-19T22:38:50;9.30;99.90
5210;DHT22;2624;48.048;11.706;2023-11-19T22:43:53;9.30;99.90
5210;DHT22;2624;48.048;11.706;2023-11-19T22:48:55;9.20;99.90
5210;DHT22;2624;48.048;11.706;2023-11-19T22:53:56;9.20;99.90
5210;DHT22;2624;48.048;11.706;2023-11-19T22:59:00;9.20;99.90
5210;DHT22;2624;48.048;11.706;2023-11-19T23:04:01;9.30;99.90
5210;DHT22;2624;48.048;11.706;2023-11-19T23:09:03;9.30;99.90
5210;DHT22;2624;48.048;11.706;2023-11-19T23:14:07;9.20;99.90
5210;DHT22;2624;48.048;11.706;2023-11-19T23:19:11;9.30;99.90
5210;DHT22;2624;48.048;11.706;2023-11-19T23:24:12;9.20;99.90
5210;DHT22;2624;48.048;11.706;2023-11-19T23:29:16;9.20;99.90
5210;DHT22;2624;48.048;11.706;2023-11-19T23:34:18;9.20;99.90
5210;DHT22;2624;48.048;11.706;2023-11-19T23:39:19;9.20;99.90
5210;DHT22;2624;48.048;11.706;2023-11-19T23:44:22;9.20;99.90
5210;DHT22;2624;48.048;11.706;2023-11-19T23:49:24;9.20;99.90
5210;DHT22;2624;48.048;11.706;2023-11-19T23:54:26;9.20;99.90
5210;DHT22;2624;48.048;11.706;2023-11-19T23:59:29;9.20;99.90
